createdAt,value
2018-01-20T00:00:16.921Z,6.10
2018-01-20T00:01:18.039Z,6.10
2018-01-20T00:02:19.892Z,6.20
2018-01-20T00:03:21.037Z,6.20
2018-01-20T00:04:22.135Z,6.20
2018-01-20T00:05:23.305Z,6.20
2018-01-20T00:06:24.401Z,6.10
2018-01-20T00:07:25.513Z,6.20
2018-01-20T00:08:26.623Z,6.20
2018-01-20T00:09:40.055Z,6.30
2018-01-20T00:12:14.931Z,6.30
2018-01-20T00:13:16.775Z,6.20
2018-01-20T00:14:17.871Z,6.20
2018-01-20T00:15:18.960Z,6.20
2018-01-20T00:16:20.046Z,6.20
2018-01-20T00:17:21.151Z,6.20
2018-01-20T00:18:22.285Z,6.30
2018-01-20T00:19:23.399Z,6.30
2018-01-20T00:20:24.510Z,6.30
2018-01-20T00:21:26.370Z,6.30
2018-01-20T00:22:27.509Z,6.30
2018-01-20T00:23:28.560Z,6.30
2018-01-20T00:24:35.909Z,6.30
2018-01-20T00:25:37.023Z,6.30
2018-01-20T00:26:39.927Z,6.40
2018-01-20T00:27:41.051Z,6.40
2018-01-20T00:28:42.208Z,6.30
2018-01-20T00:29:43.300Z,6.50
2018-01-20T00:30:44.399Z,6.50
2018-01-20T00:31:45.516Z,6.50
2018-01-20T00:32:46.616Z,6.50
2018-01-20T00:33:48.458Z,6.50
2018-01-20T00:34:49.563Z,6.50
2018-01-20T00:35:50.652Z,6.50
2018-01-20T00:36:51.775Z,6.50
2018-01-20T00:37:52.882Z,6.50
2018-01-20T00:38:53.973Z,6.50
2018-01-20T00:39:55.085Z,6.50
2018-01-20T00:40:56.915Z,6.50
2018-01-20T00:41:58.771Z,6.50
2018-01-20T00:42:59.871Z,6.50
2018-01-20T00:44:00.959Z,6.50
2018-01-20T00:45:02.054Z,6.50
2018-01-20T00:46:03.151Z,6.30
2018-01-20T00:47:04.295Z,6.40
2018-01-20T00:48:05.403Z,6.40
2018-01-20T00:49:06.510Z,6.40
2018-01-20T00:50:07.636Z,6.40
2018-01-20T00:51:14.715Z,6.30
2018-01-20T00:52:16.891Z,6.30
2018-01-20T00:53:18.023Z,6.30
2018-01-20T00:54:19.130Z,6.30
2018-01-20T00:55:20.977Z,6.30
2018-01-20T00:56:22.075Z,6.20
2018-01-20T00:57:23.185Z,6.30
2018-01-20T00:58:24.322Z,6.10
2018-01-20T00:59:25.415Z,6.20
2018-01-20T01:00:27.267Z,6.20
2018-01-20T01:01:29.091Z,6.20
2018-01-20T01:02:30.179Z,6.20
2018-01-20T01:03:32.028Z,6.20
2018-01-20T01:04:33.115Z,6.10
2018-01-20T01:05:34.983Z,6.10
2018-01-20T01:06:36.808Z,6.10
2018-01-20T01:07:37.918Z,6.10
2018-01-20T01:08:39.049Z,6.10
2018-01-20T01:09:40.195Z,6.10
2018-01-20T01:10:41.315Z,6.10
2018-01-20T01:11:42.404Z,6.20
2018-01-20T01:12:43.523Z,6.30
2018-01-20T01:13:45.382Z,6.10
2018-01-20T01:14:46.487Z,6.10
2018-01-20T01:15:47.607Z,6.10
2018-01-20T01:16:48.696Z,6.10
2018-01-20T01:17:49.770Z,6.10
2018-01-20T01:18:50.852Z,6.10
2018-01-20T01:19:51.965Z,6.00
2018-01-20T01:20:53.810Z,6.00
2018-01-20T01:21:54.914Z,6.00
2018-01-20T01:22:55.999Z,6.00
2018-01-20T01:23:57.836Z,6.00
2018-01-20T01:24:58.939Z,6.00
2018-01-20T01:26:00.063Z,5.90
2018-01-20T01:27:01.166Z,6.00
2018-01-20T01:28:02.267Z,6.00
2018-01-20T01:29:03.394Z,6.00
2018-01-20T01:30:05.241Z,6.00
2018-01-20T01:31:06.334Z,6.00
2018-01-20T01:32:07.418Z,6.00
2018-01-20T01:33:09.257Z,5.90
2018-01-20T01:34:10.358Z,6.00
2018-01-20T01:35:11.507Z,5.90
2018-01-20T01:36:12.641Z,5.90
2018-01-20T01:37:13.739Z,6.00
2018-01-20T01:38:14.848Z,6.00
2018-01-20T01:39:15.974Z,6.00
2018-01-20T01:40:17.807Z,6.00
2018-01-20T01:41:18.911Z,6.00
2018-01-20T01:42:20.014Z,6.00
2018-01-20T01:43:21.115Z,6.00
2018-01-20T01:44:22.222Z,6.00
2018-01-20T01:45:23.319Z,6.00
2018-01-20T01:46:25.188Z,6.00
2018-01-20T01:47:26.303Z,6.00
2018-01-20T01:48:27.403Z,6.00
2018-01-20T01:49:28.545Z,6.00
2018-01-20T01:50:29.631Z,6.00
2018-01-20T01:51:30.737Z,5.90
2018-01-20T01:52:31.827Z,5.90
2018-01-20T01:53:33.651Z,5.90
2018-01-20T01:54:34.747Z,5.90
2018-01-20T01:55:35.834Z,5.90
2018-01-20T01:56:37.654Z,5.90
2018-01-20T01:57:38.754Z,5.90
2018-01-20T01:58:39.842Z,5.90
2018-01-20T01:59:40.987Z,6.00
2018-01-20T02:00:42.815Z,6.00
2018-01-20T02:01:43.922Z,6.00
2018-01-20T02:02:45.010Z,5.90
2018-01-20T02:03:46.088Z,5.90
2018-01-20T02:04:47.167Z,6.00
2018-01-20T02:05:48.990Z,6.00
2018-01-20T02:06:50.090Z,6.00
2018-01-20T02:07:51.177Z,6.00
2018-01-20T02:08:52.246Z,6.00
2018-01-20T02:09:53.322Z,6.00
2018-01-20T02:10:54.382Z,6.00
2018-01-20T02:12:02.456Z,6.00
2018-01-20T02:13:03.522Z,5.90
2018-01-20T02:14:05.331Z,5.90
2018-01-20T02:15:06.418Z,5.90
2018-01-20T02:16:07.491Z,5.90
2018-01-20T02:17:08.576Z,5.80
2018-01-20T02:18:09.690Z,5.80
2018-01-20T02:19:11.517Z,5.80
2018-01-20T02:20:12.601Z,5.80
2018-01-20T02:21:14.431Z,5.80
2018-01-20T02:22:16.254Z,5.80
2018-01-20T02:23:17.331Z,5.80
2018-01-20T02:24:18.395Z,5.80
2018-01-20T02:25:19.458Z,5.90
2018-01-20T02:26:20.539Z,5.90
2018-01-20T02:27:21.648Z,5.90
2018-01-20T02:28:22.720Z,5.90
2018-01-20T02:29:23.810Z,5.90
2018-01-20T02:30:24.907Z,5.90
2018-01-20T02:31:25.992Z,6.00
2018-01-20T02:32:27.095Z,6.00
2018-01-20T02:33:28.899Z,6.00
2018-01-20T02:34:29.975Z,6.00
2018-01-20T02:35:31.051Z,6.00
2018-01-20T02:36:32.134Z,6.10
2018-01-20T02:37:33.964Z,6.10
2018-01-20T02:38:35.055Z,6.10
2018-01-20T02:39:36.147Z,6.20
2018-01-20T02:40:37.955Z,6.30
2018-01-20T02:41:39.035Z,6.20
2018-01-20T02:42:40.135Z,6.30
2018-01-20T02:43:41.219Z,6.30
2018-01-20T02:44:43.050Z,6.30
2018-01-20T02:45:44.139Z,6.30
2018-01-20T02:46:45.218Z,6.40
2018-01-20T02:47:47.042Z,6.40
2018-01-20T02:48:48.103Z,6.40
2018-01-20T02:49:49.906Z,6.40
2018-01-20T02:50:50.970Z,6.40
2018-01-20T02:51:52.787Z,6.40
2018-01-20T02:52:53.887Z,6.40
2018-01-20T02:53:54.990Z,6.40
2018-01-20T02:54:56.803Z,6.50
2018-01-20T02:55:57.878Z,6.40
2018-01-20T02:56:59.716Z,6.50
2018-01-20T02:58:01.535Z,6.40
2018-01-20T02:59:02.632Z,6.50
2018-01-20T03:00:03.780Z,6.40
2018-01-20T03:01:04.918Z,6.50
2018-01-20T03:02:05.998Z,6.50
2018-01-20T03:03:07.099Z,6.40
2018-01-20T03:04:08.211Z,6.40
2018-01-20T03:05:09.295Z,6.40
2018-01-20T03:06:10.380Z,6.30
2018-01-20T03:07:11.464Z,6.30
2018-01-20T03:08:13.274Z,6.30
2018-01-20T03:09:14.375Z,6.30
2018-01-20T03:10:16.191Z,6.30
2018-01-20T03:11:18.031Z,6.20
2018-01-20T03:12:19.124Z,6.30
2018-01-20T03:13:20.207Z,6.20
2018-01-20T03:14:22.030Z,6.10
2018-01-20T03:15:23.134Z,6.10
2018-01-20T03:16:24.224Z,6.10
2018-01-20T03:17:26.063Z,6.10
2018-01-20T03:18:27.158Z,6.00
2018-01-20T03:19:28.235Z,6.00
2018-01-20T03:20:30.052Z,6.00
2018-01-20T03:21:31.147Z,5.90
2018-01-20T03:22:32.235Z,5.90
2018-01-20T03:23:33.339Z,5.90
2018-01-20T03:24:34.421Z,5.90
2018-01-20T03:25:36.261Z,5.80
2018-01-20T03:26:37.332Z,5.80
2018-01-20T03:27:38.423Z,5.80
2018-01-20T03:28:39.498Z,5.90
2018-01-20T03:29:40.570Z,5.90
2018-01-20T03:30:41.676Z,6.00
2018-01-20T03:31:42.760Z,6.00
2018-01-20T03:32:44.583Z,6.10
2018-01-20T03:33:45.983Z,6.10
2018-01-20T03:34:47.047Z,6.10
2018-01-20T03:35:48.179Z,6.10
2018-01-20T03:36:49.279Z,6.20
2018-01-20T03:37:50.377Z,6.20
2018-01-20T03:38:51.458Z,6.20
2018-01-20T03:39:52.536Z,6.20
2018-01-20T03:40:53.619Z,6.20
2018-01-20T03:41:54.695Z,6.20
2018-01-20T03:42:55.778Z,6.20
2018-01-20T03:43:56.878Z,6.20
2018-01-20T03:44:57.982Z,6.20
2018-01-20T03:45:59.068Z,6.20
2018-01-20T03:47:00.160Z,6.30
2018-01-20T03:48:01.263Z,6.30
2018-01-20T03:49:02.363Z,6.30
2018-01-20T03:50:03.458Z,6.30
2018-01-20T03:51:04.534Z,6.30
2018-01-20T03:52:05.610Z,6.40
2018-01-20T03:53:06.719Z,6.40
2018-01-20T03:54:07.813Z,6.30
2018-01-20T03:55:09.636Z,6.20
2018-01-20T03:56:10.713Z,6.20
2018-01-20T03:57:11.816Z,6.10
2018-01-20T03:58:13.674Z,6.00
2018-01-20T03:59:15.506Z,6.00
2018-01-20T04:00:17.343Z,6.00
2018-01-20T04:01:18.441Z,6.00
2018-01-20T04:02:19.515Z,5.90
2018-01-20T04:03:20.603Z,5.90
2018-01-20T04:04:21.667Z,6.00
2018-01-20T04:05:22.743Z,6.00
2018-01-20T04:06:23.823Z,6.00
2018-01-20T04:07:24.886Z,6.00
2018-01-20T04:08:26.710Z,5.90
2018-01-20T04:09:27.795Z,5.90
2018-01-20T04:10:28.880Z,5.90
2018-01-20T04:11:30.471Z,5.80
2018-01-20T04:12:31.542Z,5.80
2018-01-20T04:13:32.635Z,5.80
2018-01-20T04:14:33.709Z,5.80
2018-01-20T04:15:34.812Z,5.70
2018-01-20T04:16:35.916Z,5.80
2018-01-20T04:17:37.726Z,5.70
2018-01-20T04:18:38.939Z,5.70
2018-01-20T04:19:40.043Z,5.70
2018-01-20T04:20:41.123Z,5.70
2018-01-20T04:21:42.239Z,5.80
2018-01-20T04:22:43.311Z,5.70
2018-01-20T04:23:44.403Z,5.70
2018-01-20T04:24:45.466Z,5.70
2018-01-20T04:25:46.543Z,5.80
2018-01-20T04:26:47.696Z,5.70
2018-01-20T04:27:48.779Z,5.70
2018-01-20T04:28:49.872Z,5.80
2018-01-20T04:29:50.967Z,5.80
2018-01-20T04:30:52.059Z,5.80
2018-01-20T04:31:53.139Z,5.80
2018-01-20T04:32:54.222Z,5.90
2018-01-20T04:33:55.318Z,5.90
2018-01-20T04:34:56.396Z,5.90
2018-01-20T04:35:57.506Z,5.90
2018-01-20T04:36:58.626Z,5.80
2018-01-20T04:38:01.560Z,5.80
2018-01-20T04:39:03.093Z,5.80
2018-01-20T04:40:04.258Z,5.80
2018-01-20T04:41:05.343Z,5.70
2018-01-20T04:42:06.454Z,5.70
2018-01-20T04:43:07.595Z,5.60
2018-01-20T04:44:08.686Z,5.50
2018-01-20T04:45:09.755Z,5.40
2018-01-20T04:46:10.831Z,5.40
2018-01-20T04:47:12.679Z,5.30
2018-01-20T04:48:13.770Z,5.30
2018-01-20T04:49:14.898Z,5.30
2018-01-20T04:50:15.991Z,5.30
2018-01-20T04:51:17.067Z,5.20
2018-01-20T04:52:18.151Z,5.30
2018-01-20T04:53:19.978Z,5.40
2018-01-20T04:54:21.101Z,5.30
2018-01-20T04:55:22.178Z,5.40
2018-01-20T04:56:23.281Z,5.40
2018-01-20T04:57:24.372Z,5.40
2018-01-20T04:58:25.449Z,5.40
2018-01-20T04:59:26.551Z,5.40
2018-01-20T05:00:27.635Z,5.50
2018-01-20T05:01:28.722Z,5.50
2018-01-20T05:02:29.802Z,5.50
2018-01-20T05:03:30.878Z,5.50
2018-01-20T05:04:31.976Z,5.50
2018-01-20T05:05:33.052Z,5.50
2018-01-20T05:06:34.191Z,5.50
2018-01-20T05:07:35.294Z,5.50
2018-01-20T05:08:36.378Z,5.50
2018-01-20T05:09:37.455Z,5.50
2018-01-20T05:10:38.554Z,5.40
2018-01-20T05:11:39.655Z,5.30
2018-01-20T05:12:41.502Z,5.30
2018-01-20T05:13:42.602Z,5.30
2018-01-20T05:14:43.703Z,5.30
2018-01-20T05:15:44.787Z,5.20
2018-01-20T05:16:45.866Z,5.20
2018-01-20T05:17:46.951Z,5.30
2018-01-20T05:18:48.027Z,5.20
2018-01-20T05:19:49.866Z,5.20
2018-01-20T05:20:50.955Z,5.20
2018-01-20T05:21:52.822Z,5.20
2018-01-20T05:22:53.955Z,5.20
2018-01-20T05:23:55.079Z,5.20
2018-01-20T05:24:56.162Z,5.20
2018-01-20T05:25:57.261Z,5.20
2018-01-20T05:26:58.365Z,5.30
2018-01-20T05:27:59.444Z,5.30
2018-01-20T05:29:00.540Z,5.30
2018-01-20T05:30:01.620Z,5.30
2018-01-20T05:31:02.703Z,5.20
2018-01-20T05:32:03.795Z,5.30
2018-01-20T05:33:04.876Z,5.30
2018-01-20T05:34:05.950Z,5.40
2018-01-20T05:35:07.038Z,5.40
2018-01-20T05:36:08.103Z,5.40
2018-01-20T05:37:09.918Z,5.50
2018-01-20T05:38:10.990Z,5.50
2018-01-20T05:39:12.843Z,5.60
2018-01-20T05:40:13.936Z,5.60
2018-01-20T05:41:15.054Z,5.60
2018-01-20T05:42:16.134Z,5.70
2018-01-20T05:43:17.955Z,5.70
2018-01-20T05:44:19.050Z,5.70
2018-01-20T05:45:20.123Z,5.70
2018-01-20T05:46:21.203Z,5.50
2018-01-20T05:47:22.308Z,5.60
2018-01-20T05:48:23.402Z,5.60
2018-01-20T05:49:24.487Z,5.60
2018-01-20T05:50:25.572Z,5.60
2018-01-20T05:51:26.640Z,5.60
2018-01-20T05:52:28.442Z,5.60
2018-01-20T05:53:29.519Z,5.70
2018-01-20T05:54:31.377Z,5.70
2018-01-20T05:55:32.458Z,5.50
2018-01-20T05:56:33.526Z,5.70
2018-01-20T05:57:34.590Z,5.60
2018-01-20T05:58:35.667Z,5.60
2018-01-20T05:59:36.745Z,5.60
2018-01-20T06:00:38.576Z,5.50
2018-01-20T06:01:39.662Z,5.60
2018-01-20T06:02:40.750Z,5.50
2018-01-20T06:03:41.824Z,5.50
2018-01-20T06:04:42.918Z,5.50
2018-01-20T06:05:44.014Z,5.50
2018-01-20T06:06:45.117Z,5.50
2018-01-20T06:07:46.203Z,5.50
2018-01-20T06:08:47.294Z,5.40
2018-01-20T06:09:48.362Z,5.40
2018-01-20T06:10:49.451Z,5.40
2018-01-20T06:11:50.542Z,5.30
2018-01-20T06:12:52.370Z,5.20
2018-01-20T06:13:53.470Z,5.20
2018-01-20T06:14:54.573Z,5.20
2018-01-20T06:15:56.382Z,5.20
2018-01-20T06:16:57.500Z,5.20
2018-01-20T06:17:58.539Z,5.10
2018-01-20T06:19:06.571Z,5.10
2018-01-20T06:20:08.383Z,5.00
2018-01-20T06:21:09.454Z,4.90
2018-01-20T06:22:10.577Z,5.00
2018-01-20T06:23:11.653Z,4.90
2018-01-20T06:24:12.710Z,5.00
2018-01-20T06:25:13.799Z,5.00
2018-01-20T06:26:14.899Z,4.90
2018-01-20T06:27:15.991Z,5.00
2018-01-20T06:28:17.071Z,5.00
2018-01-20T06:29:18.158Z,5.00
2018-01-20T06:31:27.028Z,5.10
2018-01-20T06:32:28.156Z,5.00
2018-01-20T06:33:29.241Z,5.00
2018-01-20T06:34:30.322Z,5.10
2018-01-20T06:35:31.396Z,5.00
2018-01-20T06:36:32.471Z,5.10
2018-01-20T06:37:33.543Z,5.10
2018-01-20T06:38:34.627Z,5.10
2018-01-20T06:39:35.735Z,5.10
2018-01-20T06:40:36.817Z,5.20
2018-01-20T06:41:37.907Z,5.20
2018-01-20T06:42:38.981Z,5.20
2018-01-20T06:43:40.834Z,5.30
2018-01-20T06:44:41.920Z,5.20
2018-01-20T06:45:43.011Z,5.30
2018-01-20T06:46:44.841Z,5.20
2018-01-20T06:47:45.951Z,5.30
2018-01-20T06:48:47.022Z,5.30
2018-01-20T06:49:48.846Z,5.30
2018-01-20T06:50:49.931Z,5.30
2018-01-20T06:51:51.003Z,5.30
2018-01-20T06:52:52.071Z,5.30
2018-01-20T06:53:53.882Z,5.30
2018-01-20T06:54:54.954Z,5.30
2018-01-20T06:55:56.027Z,5.30
2018-01-20T06:56:57.114Z,5.30
2018-01-20T06:57:58.199Z,5.30
2018-01-20T06:58:59.278Z,5.30
2018-01-20T07:00:01.087Z,5.40
2018-01-20T07:01:02.412Z,5.40
2018-01-20T07:02:03.523Z,5.40
2018-01-20T07:03:04.612Z,5.40
2018-01-20T07:04:05.706Z,5.50
2018-01-20T07:05:06.785Z,5.50
2018-01-20T07:06:07.859Z,5.50
2018-01-20T07:07:08.942Z,5.50
2018-01-20T07:08:10.027Z,5.50
2018-01-20T07:09:11.112Z,5.50
2018-01-20T07:10:12.170Z,5.60
2018-01-20T07:11:13.280Z,5.60
2018-01-20T07:12:15.111Z,5.60
2018-01-20T07:13:16.197Z,5.60
2018-01-20T07:14:17.259Z,5.70
2018-01-20T07:15:18.366Z,5.60
2018-01-20T07:16:19.456Z,5.70
2018-01-20T07:17:21.291Z,5.70
2018-01-20T07:18:22.371Z,5.70
2018-01-20T07:19:23.500Z,5.60
2018-01-20T07:20:24.571Z,5.60
2018-01-20T07:21:25.686Z,5.60
2018-01-20T07:22:26.780Z,5.60
2018-01-20T07:23:27.850Z,5.60
2018-01-20T07:24:28.915Z,5.60
2018-01-20T07:25:29.990Z,5.60
2018-01-20T07:26:31.075Z,5.70
2018-01-20T07:27:32.204Z,5.70
2018-01-20T07:28:33.295Z,5.70
2018-01-20T07:29:34.398Z,5.80
2018-01-20T07:30:35.479Z,5.70
2018-01-20T07:31:36.591Z,5.70
2018-01-20T07:32:37.678Z,5.70
2018-01-20T07:33:38.754Z,5.70
2018-01-20T07:34:39.863Z,5.70
2018-01-20T07:35:41.707Z,5.80
2018-01-20T07:36:42.795Z,5.70
2018-01-20T07:37:43.879Z,5.80
2018-01-20T07:38:44.943Z,5.80
2018-01-20T07:39:46.138Z,5.80
2018-01-20T07:40:47.219Z,5.80
2018-01-20T07:41:48.286Z,5.80
2018-01-20T07:42:49.772Z,5.80
2018-01-20T07:43:51.593Z,5.80
2018-01-20T07:44:52.658Z,5.80
2018-01-20T07:45:53.720Z,5.90
2018-01-20T07:46:54.814Z,5.90
2018-01-20T07:47:55.909Z,5.90
2018-01-20T07:48:56.994Z,6.00
2018-01-20T07:49:58.067Z,6.00
2018-01-20T07:50:59.139Z,6.00
2018-01-20T07:52:00.946Z,6.00
2018-01-20T07:53:02.055Z,6.00
2018-01-20T07:54:03.123Z,6.00
2018-01-20T07:55:04.209Z,6.00
2018-01-20T07:56:05.288Z,6.00
2018-01-20T07:57:06.366Z,5.90
2018-01-20T07:58:07.447Z,5.90
2018-01-20T07:59:08.535Z,6.00
2018-01-20T08:00:09.603Z,6.00
2018-01-20T08:01:10.691Z,6.00
2018-01-20T08:02:11.768Z,6.00
2018-01-20T08:03:12.862Z,5.90
2018-01-20T08:04:13.939Z,5.90
2018-01-20T08:05:15.021Z,6.00
2018-01-20T08:06:16.110Z,5.90
2018-01-20T08:07:17.207Z,6.00
2018-01-20T08:08:18.290Z,6.00
2018-01-20T08:09:19.358Z,6.00
2018-01-20T08:10:20.431Z,6.00
2018-01-20T08:11:21.494Z,6.00
2018-01-20T08:12:22.563Z,6.00
2018-01-20T08:13:23.647Z,6.10
2018-01-20T08:14:24.747Z,6.00
2018-01-20T08:15:25.816Z,6.10
2018-01-20T08:16:27.643Z,6.10
2018-01-20T08:17:28.730Z,6.10
2018-01-20T08:18:29.815Z,6.10
2018-01-20T08:19:30.918Z,6.10
2018-01-20T08:20:31.988Z,6.20
2018-01-20T08:21:33.047Z,6.20
2018-01-20T08:22:34.142Z,6.20
2018-01-20T08:23:35.242Z,6.30
2018-01-20T08:24:36.322Z,6.30
2018-01-20T08:25:38.182Z,6.30
2018-01-20T08:26:39.323Z,6.40
2018-01-20T08:27:40.434Z,6.30
2018-01-20T08:28:41.522Z,6.30
2018-01-20T08:29:42.597Z,6.30
2018-01-20T08:30:44.455Z,6.40
2018-01-20T08:31:45.558Z,6.30
2018-01-20T08:32:46.632Z,6.40
2018-01-20T08:33:47.729Z,6.40
2018-01-20T08:34:48.806Z,6.30
2018-01-20T08:35:49.883Z,6.30
2018-01-20T08:36:51.039Z,6.30
2018-01-20T08:37:52.127Z,6.20
2018-01-20T08:38:53.211Z,6.20
2018-01-20T08:39:55.042Z,6.20
2018-01-20T08:40:56.111Z,6.20
2018-01-20T08:41:57.932Z,6.20
2018-01-20T08:42:59.011Z,6.20
2018-01-20T08:44:00.104Z,6.30
2018-01-20T08:45:01.175Z,6.20
2018-01-20T08:46:02.284Z,6.30
2018-01-20T08:47:04.094Z,6.30
2018-01-20T08:48:05.174Z,6.30
2018-01-20T08:49:06.276Z,6.30
2018-01-20T08:50:08.123Z,6.30
2018-01-20T08:51:09.206Z,6.30
2018-01-20T08:52:10.284Z,6.40
2018-01-20T08:53:11.355Z,6.30
2018-01-20T08:54:12.454Z,6.30
2018-01-20T08:55:13.537Z,6.30
2018-01-20T08:56:14.639Z,6.40
2018-01-20T08:57:15.800Z,6.40
2018-01-20T08:58:16.871Z,6.40
2018-01-20T08:59:17.962Z,6.50
2018-01-20T09:00:19.051Z,6.40
2018-01-20T09:01:20.209Z,6.50
2018-01-20T09:02:22.033Z,6.50
2018-01-20T09:03:23.089Z,6.50
2018-01-20T09:04:24.193Z,6.40
2018-01-20T09:05:25.274Z,6.50
2018-01-20T09:06:26.368Z,6.50
2018-01-20T09:07:27.466Z,6.50
2018-01-20T09:08:28.527Z,6.50
2018-01-20T09:09:29.634Z,6.40
2018-01-20T09:10:30.748Z,6.40
2018-01-20T09:11:31.835Z,6.40
2018-01-20T09:12:33.654Z,6.40
2018-01-20T09:13:34.775Z,6.40
2018-01-20T09:14:35.957Z,6.50
2018-01-20T09:15:37.079Z,6.40
2018-01-20T09:16:38.212Z,6.50
2018-01-20T09:17:39.320Z,6.50
2018-01-20T09:18:40.491Z,6.40
2018-01-20T09:19:41.659Z,6.40
2018-01-20T09:20:43.555Z,6.50
2018-01-20T09:21:44.655Z,6.50
2018-01-20T09:22:45.838Z,6.50
2018-01-20T09:23:47.694Z,6.50
2018-01-20T09:24:48.790Z,6.50
2018-01-20T09:25:49.871Z,6.50
2018-01-20T09:26:50.984Z,6.50
2018-01-20T09:27:52.850Z,6.60
2018-01-20T09:28:53.951Z,6.60
2018-01-20T09:29:55.071Z,6.60
2018-01-20T09:30:56.184Z,6.60
2018-01-20T09:31:57.264Z,6.60
2018-01-20T09:32:59.920Z,6.50
2018-01-20T09:34:01.795Z,6.50
2018-01-20T09:35:03.736Z,6.50
2018-01-20T09:36:06.434Z,6.50
2018-01-20T09:37:07.555Z,6.50
2018-01-20T09:38:09.399Z,6.50
2018-01-20T09:39:11.278Z,6.50
2018-01-20T09:40:12.375Z,6.50
2018-01-20T09:41:13.495Z,6.50
2018-01-20T09:42:14.612Z,6.50
2018-01-20T09:43:15.725Z,6.50
2018-01-20T09:44:16.798Z,6.50
2018-01-20T09:45:17.979Z,6.50
2018-01-20T09:46:19.071Z,6.50
2018-01-20T09:47:20.167Z,6.50
2018-01-20T09:48:21.263Z,6.50
2018-01-20T09:49:22.360Z,6.50
2018-01-20T09:50:23.467Z,6.40
2018-01-20T09:51:24.616Z,6.40
2018-01-20T09:52:25.707Z,6.40
2018-01-20T09:53:26.784Z,6.40
2018-01-20T09:54:27.881Z,6.30
2018-01-20T09:55:28.975Z,6.30
2018-01-20T09:56:30.535Z,6.40
2018-01-20T09:57:31.611Z,6.40
2018-01-20T09:58:32.711Z,6.40
2018-01-20T09:59:33.893Z,6.40
2018-01-20T10:00:34.983Z,6.30
2018-01-20T10:01:36.085Z,6.40
2018-01-20T10:02:37.189Z,6.30
2018-01-20T10:03:38.262Z,6.20
2018-01-20T10:04:40.092Z,6.10
2018-01-20T10:05:41.235Z,6.10
2018-01-20T10:06:42.326Z,6.10
2018-01-20T10:07:43.395Z,6.10
2018-01-20T10:08:45.211Z,6.10
2018-01-20T10:09:46.307Z,6.10
2018-01-20T10:10:47.398Z,6.10
2018-01-20T10:11:49.261Z,6.20
2018-01-20T10:12:50.343Z,6.20
2018-01-20T10:13:51.434Z,6.20
2018-01-20T10:14:53.292Z,6.30
2018-01-20T10:15:54.392Z,6.30
2018-01-20T10:16:56.222Z,6.30
2018-01-20T10:17:57.343Z,6.30
2018-01-20T10:18:58.485Z,6.30
2018-01-20T10:19:59.571Z,6.10
2018-01-20T10:21:00.675Z,6.30
2018-01-20T10:22:02.534Z,6.30
2018-01-20T10:23:03.651Z,6.30
2018-01-20T10:24:04.738Z,6.30
2018-01-20T10:25:05.840Z,6.40
2018-01-20T10:26:10.263Z,6.50
2018-01-20T10:27:11.339Z,6.50
2018-01-20T10:28:12.431Z,6.50
2018-01-20T10:29:13.531Z,6.60
2018-01-20T10:30:14.703Z,6.50
2018-01-20T10:31:15.905Z,6.50
2018-01-20T10:32:19.991Z,6.50
2018-01-20T10:33:21.075Z,6.60
2018-01-20T10:34:22.147Z,6.60
2018-01-20T10:35:23.244Z,6.60
2018-01-20T10:36:24.307Z,6.60
2018-01-20T10:37:25.397Z,6.60
2018-01-20T10:38:26.507Z,6.60
2018-01-20T10:39:27.576Z,6.60
2018-01-20T10:40:28.686Z,6.60
2018-01-20T10:41:29.788Z,6.70
2018-01-20T10:42:30.868Z,6.70
2018-01-20T10:43:31.941Z,6.70
2018-01-20T10:44:33.332Z,6.60
2018-01-20T10:45:34.407Z,6.60
2018-01-20T10:46:35.531Z,6.70
2018-01-20T10:47:36.625Z,6.70
2018-01-20T10:48:37.686Z,6.70
2018-01-20T10:49:38.747Z,6.70
2018-01-20T10:50:39.858Z,6.80
2018-01-20T10:51:40.946Z,6.80
2018-01-20T10:52:42.783Z,6.90
2018-01-20T10:53:44.616Z,6.90
2018-01-20T10:54:45.809Z,6.70
2018-01-20T10:55:46.891Z,6.90
2018-01-20T10:56:48.061Z,6.90
2018-01-20T10:57:49.144Z,6.90
2018-01-20T10:58:50.215Z,6.90
2018-01-20T10:59:52.038Z,6.90
2018-01-20T11:00:53.134Z,6.90
2018-01-20T11:01:54.221Z,6.90
2018-01-20T11:02:56.082Z,7.00
2018-01-20T11:03:57.182Z,7.00
2018-01-20T11:04:58.263Z,7.00
2018-01-20T11:05:59.335Z,7.00
2018-01-20T11:07:00.415Z,7.00
2018-01-20T11:08:01.517Z,7.10
2018-01-20T11:09:02.639Z,7.10
2018-01-20T11:10:03.760Z,7.00
2018-01-20T11:11:04.849Z,7.00
2018-01-20T11:12:06.662Z,7.00
2018-01-20T11:13:08.502Z,6.90
2018-01-20T11:14:10.023Z,6.90
2018-01-20T11:15:11.332Z,6.90
2018-01-20T11:16:12.423Z,6.90
2018-01-20T11:17:13.508Z,7.00
2018-01-20T11:18:14.634Z,7.00
2018-01-20T11:19:15.722Z,7.00
2018-01-20T11:20:16.797Z,7.00
2018-01-20T11:21:22.196Z,7.00
2018-01-20T11:22:23.663Z,7.00
2018-01-20T11:23:24.745Z,7.20
2018-01-20T11:24:25.834Z,7.00
2018-01-20T11:25:26.952Z,7.20
2018-01-20T11:26:28.780Z,7.10
2018-01-20T11:27:30.117Z,7.10
2018-01-20T11:28:31.193Z,7.20
2018-01-20T11:29:32.320Z,7.20
2018-01-20T11:30:33.440Z,7.20
2018-01-20T11:31:34.575Z,7.30
2018-01-20T11:32:35.655Z,7.30
2018-01-20T11:33:37.977Z,7.30
2018-01-20T11:34:39.063Z,7.20
2018-01-20T11:35:40.187Z,7.20
2018-01-20T11:36:41.301Z,7.20
2018-01-20T11:37:42.407Z,7.20
2018-01-20T11:38:44.963Z,7.20
2018-01-20T11:39:46.055Z,7.20
2018-01-20T11:40:47.179Z,7.20
2018-01-20T11:41:48.339Z,7.20
2018-01-20T11:42:49.440Z,7.30
2018-01-20T11:43:50.791Z,7.30
2018-01-20T11:44:51.901Z,7.40
2018-01-20T11:45:53.782Z,7.30
2018-01-20T11:46:54.829Z,7.30
2018-01-20T11:47:55.890Z,7.30
2018-01-20T11:48:56.971Z,7.20
2018-01-20T11:49:58.565Z,7.30
2018-01-20T11:51:01.706Z,7.30
2018-01-20T11:52:02.768Z,7.40
2018-01-20T11:53:04.586Z,7.40
2018-01-20T11:54:05.910Z,7.40
2018-01-20T11:55:06.987Z,7.30
2018-01-20T11:56:08.828Z,7.30
2018-01-20T11:57:10.666Z,7.30
2018-01-20T11:58:11.779Z,7.30
2018-01-20T11:59:12.863Z,7.30
2018-01-20T12:00:13.986Z,7.20
2018-01-20T12:01:15.075Z,7.10
2018-01-20T12:02:16.476Z,7.10
2018-01-20T12:03:17.651Z,7.10
2018-01-20T12:04:18.719Z,7.20
2018-01-20T12:05:19.811Z,7.10
2018-01-20T12:06:22.102Z,7.20
2018-01-20T12:07:25.868Z,7.20
2018-01-20T12:08:27.083Z,7.20
2018-01-20T12:09:28.282Z,7.20
2018-01-20T12:10:29.400Z,7.10
2018-01-20T12:11:30.497Z,7.20
2018-01-20T12:12:31.746Z,7.20
2018-01-20T12:13:32.948Z,7.20
2018-01-20T12:14:34.071Z,7.20
2018-01-20T12:15:35.181Z,7.20
2018-01-20T12:16:37.060Z,7.20
2018-01-20T12:18:39.259Z,7.20
2018-01-20T12:19:40.407Z,7.30
2018-01-20T12:20:41.611Z,7.30
2018-01-20T12:21:42.755Z,7.30
2018-01-20T12:22:43.874Z,7.30
2018-01-20T12:23:44.982Z,7.30
2018-01-20T12:24:46.157Z,7.30
2018-01-20T12:25:47.258Z,7.30
2018-01-20T12:26:48.338Z,7.30
2018-01-20T12:27:50.435Z,7.30
2018-01-20T12:28:51.522Z,7.40
2018-01-20T12:29:52.707Z,7.30
2018-01-20T12:30:55.472Z,7.30
2018-01-20T12:31:56.616Z,7.30
2018-01-20T12:32:57.798Z,7.30
2018-01-20T12:33:58.910Z,7.30
2018-01-20T12:35:00.064Z,7.20
2018-01-20T12:36:02.013Z,7.10
2018-01-20T12:37:03.131Z,7.10
2018-01-20T12:38:04.295Z,7.20
2018-01-20T12:39:05.394Z,7.20
2018-01-20T12:40:06.510Z,7.20
2018-01-20T12:41:07.643Z,7.30
2018-01-20T12:42:08.746Z,7.30
2018-01-20T12:43:10.572Z,7.30
2018-01-20T12:44:11.714Z,7.30
2018-01-20T12:45:12.833Z,7.40
2018-01-20T12:46:13.980Z,7.40
2018-01-20T12:47:15.126Z,7.40
2018-01-20T12:48:16.443Z,7.40
2018-01-20T12:49:18.731Z,7.50
2018-01-20T12:50:21.619Z,7.40
2018-01-20T12:51:22.745Z,7.40
2018-01-20T12:52:23.865Z,7.50
2018-01-20T12:53:24.980Z,7.50
2018-01-20T12:54:26.069Z,7.60
2018-01-20T12:55:27.999Z,7.60
2018-01-20T12:56:29.806Z,7.50
2018-01-20T12:57:30.913Z,7.50
2018-01-20T12:58:32.054Z,7.50
2018-01-20T12:59:33.146Z,7.60
2018-01-20T13:00:34.959Z,7.60
2018-01-20T13:01:36.034Z,7.60
2018-01-20T13:02:37.183Z,7.60
2018-01-20T13:03:39.134Z,7.60
2018-01-20T13:04:40.221Z,7.60
2018-01-20T13:05:41.320Z,7.60
2018-01-20T13:06:42.419Z,7.60
2018-01-20T13:07:43.542Z,7.60
2018-01-20T13:08:44.613Z,7.50
2018-01-20T13:09:45.688Z,7.50
2018-01-20T13:10:46.775Z,7.50
2018-01-20T13:11:47.917Z,7.50
2018-01-20T13:12:49.072Z,7.50
2018-01-20T13:13:50.147Z,7.40
2018-01-20T13:14:51.412Z,7.40
2018-01-20T13:15:52.523Z,7.40
2018-01-20T13:16:53.602Z,7.40
2018-01-20T13:17:54.721Z,7.40
2018-01-20T13:18:55.785Z,7.40
2018-01-20T13:19:56.903Z,7.40
2018-01-20T13:20:58.002Z,7.40
2018-01-20T13:21:59.091Z,7.50
2018-01-20T13:23:00.184Z,7.50
2018-01-20T13:24:01.321Z,7.50
2018-01-20T13:25:02.432Z,7.40
2018-01-20T13:26:03.551Z,7.40
2018-01-20T13:27:04.638Z,7.40
2018-01-20T13:28:06.060Z,7.40
2018-01-20T13:29:07.211Z,7.40
2018-01-20T13:30:09.080Z,7.40
2018-01-20T13:31:10.985Z,7.30
2018-01-20T13:32:12.151Z,7.30
2018-01-20T13:33:13.272Z,7.30
2018-01-20T13:34:14.482Z,7.40
2018-01-20T13:35:15.773Z,7.30
2018-01-20T13:36:17.019Z,7.30
2018-01-20T13:37:18.151Z,7.30
2018-01-20T13:38:20.007Z,7.40
2018-01-20T13:39:21.191Z,7.30